createdAt,value
2019-05-20T00:00:34.640Z,14.15
2019-05-20T00:01:34.691Z,14.12
2019-05-20T00:02:34.633Z,14.10
2019-05-20T00:03:34.623Z,14.04
2019-05-20T00:04:34.599Z,14.05
2019-05-20T00:05:34.641Z,14.04
2019-05-20T00:06:34.586Z,14.03
2019-05-20T00:07:34.548Z,13.99
2019-05-20T00:08:34.562Z,13.97
2019-05-20T00:09:34.575Z,13.95
2019-05-20T00:10:34.518Z,13.93
2019-05-20T00:11:34.566Z,13.92
2019-05-20T00:12:34.531Z,13.90
2019-05-20T00:13:34.537Z,13.86
2019-05-20T00:14:34.493Z,13.83
2019-05-20T00:15:34.487Z,13.79
2019-05-20T00:16:34.497Z,13.81
2019-05-20T00:17:34.533Z,13.83
2019-05-20T00:18:34.440Z,13.79
2019-05-20T00:19:34.528Z,13.78
2019-05-20T00:20:34.464Z,13.78
2019-05-20T00:21:34.425Z,13.79
2019-05-20T00:22:34.478Z,13.77
2019-05-20T00:23:34.382Z,13.78
2019-05-20T00:24:34.378Z,13.75
2019-05-20T00:25:34.437Z,13.75
2019-05-20T00:26:34.379Z,13.74
2019-05-20T00:27:34.352Z,13.71
2019-05-20T00:28:34.358Z,13.71
2019-05-20T00:29:34.369Z,13.70
2019-05-20T00:30:34.340Z,13.67
2019-05-20T00:31:34.339Z,13.62
2019-05-20T00:32:41.027Z,13.63
2019-05-20T00:33:35.272Z,13.62
2019-05-20T00:34:35.688Z,13.62
2019-05-20T00:35:34.296Z,13.63
2019-05-20T00:36:34.277Z,13.65
2019-05-20T00:37:34.238Z,13.62
2019-05-20T00:38:34.289Z,13.62
2019-05-20T00:39:34.235Z,13.60
2019-05-20T00:40:34.207Z,13.60
2019-05-20T00:41:34.253Z,13.57
2019-05-20T00:42:34.182Z,13.59
2019-05-20T00:43:34.192Z,13.54
2019-05-20T00:44:34.171Z,13.56
2019-05-20T00:45:34.192Z,13.54
2019-05-20T00:46:34.191Z,13.54
2019-05-20T00:47:34.147Z,13.52
2019-05-20T00:48:34.145Z,13.52
2019-05-20T00:49:34.124Z,13.53
2019-05-20T00:50:34.099Z,13.52
2019-05-20T00:51:34.128Z,13.52
2019-05-20T00:52:34.088Z,13.49
2019-05-20T00:53:34.096Z,13.46
2019-05-20T00:54:34.160Z,13.46
2019-05-20T00:55:34.530Z,13.42
2019-05-20T00:56:43.287Z,13.42
2019-05-20T00:57:34.018Z,13.42
2019-05-20T00:58:33.996Z,13.41
2019-05-20T00:59:34.003Z,13.41
2019-05-20T01:00:34.044Z,13.41
2019-05-20T01:01:33.968Z,13.38
2019-05-20T01:02:33.975Z,13.37
2019-05-20T01:03:33.935Z,13.37
2019-05-20T01:04:33.944Z,13.38
2019-05-20T01:05:33.926Z,13.35
2019-05-20T01:06:33.913Z,13.38
2019-05-20T01:07:33.976Z,13.38
2019-05-20T01:08:33.914Z,13.37
2019-05-20T01:09:33.884Z,13.35
2019-05-20T01:10:33.875Z,13.35
2019-05-20T01:11:33.866Z,13.33
2019-05-20T01:12:33.871Z,13.37
2019-05-20T01:13:33.867Z,13.35
2019-05-20T01:14:33.845Z,13.37
2019-05-20T01:15:33.835Z,13.35
2019-05-20T01:16:33.812Z,13.31
2019-05-20T01:17:33.812Z,13.30
2019-05-20T01:18:33.994Z,13.27
2019-05-20T01:19:33.824Z,13.27
2019-05-20T01:20:33.781Z,13.28
2019-05-20T01:21:33.857Z,13.22
2019-05-20T01:22:33.735Z,13.22
2019-05-20T01:23:33.780Z,13.23
2019-05-20T01:24:33.859Z,13.23
2019-05-20T01:25:33.722Z,13.22
2019-05-20T01:26:33.718Z,13.20
2019-05-20T01:27:33.753Z,13.19
2019-05-20T01:28:33.705Z,13.20
2019-05-20T01:29:33.680Z,13.16
2019-05-20T01:30:33.666Z,13.12
2019-05-20T01:31:33.644Z,13.09
2019-05-20T01:32:33.669Z,13.05
2019-05-20T01:33:33.638Z,13.04
2019-05-20T01:34:33.723Z,13.01
2019-05-20T01:35:33.618Z,12.98
2019-05-20T01:36:33.597Z,12.95
2019-05-20T01:37:33.588Z,12.94
2019-05-20T01:38:33.567Z,12.90
2019-05-20T01:39:33.584Z,12.87
2019-05-20T01:40:33.568Z,12.87
2019-05-20T01:41:33.567Z,12.87
2019-05-20T01:42:33.559Z,12.87
2019-05-20T01:43:33.523Z,12.86
2019-05-20T01:44:33.506Z,12.83
2019-05-20T01:45:33.527Z,12.79
2019-05-20T01:46:33.483Z,12.80
2019-05-20T01:47:33.499Z,12.78
2019-05-20T01:48:33.453Z,12.78
2019-05-20T01:49:33.472Z,12.76
2019-05-20T01:50:33.483Z,12.76
2019-05-20T01:51:33.423Z,12.78
2019-05-20T01:52:33.445Z,12.78
2019-05-20T01:53:33.430Z,12.78
2019-05-20T01:54:33.404Z,12.75
2019-05-20T01:55:33.395Z,12.73
2019-05-20T01:56:33.392Z,12.70
2019-05-20T01:57:33.373Z,12.68
2019-05-20T01:58:33.341Z,12.65
2019-05-20T01:59:33.331Z,12.64
2019-05-20T02:00:33.348Z,12.61
2019-05-20T02:01:33.363Z,12.58
2019-05-20T02:02:33.322Z,12.55
2019-05-20T02:03:33.311Z,12.53
2019-05-20T02:04:33.289Z,12.50
2019-05-20T02:05:33.334Z,12.49
2019-05-20T02:06:33.263Z,12.47
2019-05-20T02:07:33.295Z,12.46
2019-05-20T02:08:33.247Z,12.45
2019-05-20T02:09:33.238Z,12.43
2019-05-20T02:10:33.238Z,12.39
2019-05-20T02:11:33.211Z,12.37
2019-05-20T02:12:33.229Z,12.39
2019-05-20T02:13:33.223Z,12.40
2019-05-20T02:14:33.182Z,12.37
2019-05-20T02:15:33.205Z,12.36
2019-05-20T02:16:33.160Z,12.37
2019-05-20T02:17:33.143Z,12.39
2019-05-20T02:18:33.175Z,12.43
2019-05-20T02:19:33.127Z,12.46
2019-05-20T02:20:33.115Z,12.46
2019-05-20T02:21:33.107Z,12.43
2019-05-20T02:22:33.091Z,12.43
2019-05-20T02:23:33.099Z,12.45
2019-05-20T02:24:33.077Z,12.39
2019-05-20T02:25:33.063Z,12.37
2019-05-20T02:26:33.065Z,12.39
2019-05-20T02:27:33.045Z,12.39
2019-05-20T02:28:33.057Z,12.42
2019-05-20T02:29:33.006Z,12.45
2019-05-20T02:30:33.024Z,12.43
2019-05-20T02:31:32.982Z,12.46
2019-05-20T02:32:32.993Z,12.50
2019-05-20T02:33:49.869Z,12.54
2019-05-20T02:34:34.032Z,12.55
2019-05-20T02:35:32.964Z,12.60
2019-05-20T02:36:32.947Z,12.61
2019-05-20T02:37:32.958Z,12.65
2019-05-20T02:38:32.963Z,12.68
2019-05-20T02:39:32.944Z,12.73
2019-05-20T02:40:32.901Z,12.75
2019-05-20T02:41:32.911Z,12.76
2019-05-20T02:42:32.926Z,12.79
2019-05-20T02:43:32.894Z,12.83
2019-05-20T02:44:32.908Z,12.82
2019-05-20T02:45:32.911Z,12.85
2019-05-20T02:46:32.844Z,12.86
2019-05-20T02:47:32.818Z,12.87
2019-05-20T02:48:32.916Z,12.87
2019-05-20T02:49:32.818Z,12.86
2019-05-20T02:50:32.886Z,12.86
2019-05-20T02:51:32.851Z,12.86
2019-05-20T02:52:32.773Z,12.87
2019-05-20T02:53:32.751Z,12.86
2019-05-20T02:54:32.766Z,12.90
2019-05-20T02:55:32.766Z,12.91
2019-05-20T02:56:32.784Z,12.87
2019-05-20T02:57:32.720Z,12.87
2019-05-20T02:58:32.734Z,12.86
2019-05-20T02:59:32.709Z,12.85
2019-05-20T03:00:32.748Z,12.82
2019-05-20T03:01:32.739Z,12.80
2019-05-20T03:02:32.739Z,12.83
2019-05-20T03:03:32.678Z,12.83
2019-05-20T03:04:32.635Z,12.83
2019-05-20T03:05:32.661Z,12.80
2019-05-20T03:06:32.647Z,12.79
2019-05-20T03:07:32.605Z,12.82
2019-05-20T03:08:32.761Z,12.85
2019-05-20T03:09:32.595Z,12.86
2019-05-20T03:10:32.571Z,12.91
2019-05-20T03:11:32.600Z,12.93
2019-05-20T03:12:32.678Z,12.93
2019-05-20T03:13:32.534Z,12.94
2019-05-20T03:14:32.564Z,12.97
2019-05-20T03:15:32.534Z,12.97
2019-05-20T03:16:32.506Z,12.95
2019-05-20T03:17:32.545Z,12.95
2019-05-20T03:18:32.555Z,12.95
2019-05-20T03:19:32.499Z,12.97
2019-05-20T03:20:32.473Z,12.95
2019-05-20T03:21:32.466Z,12.94
2019-05-20T03:22:32.527Z,12.94
2019-05-20T03:23:32.450Z,12.94
2019-05-20T03:24:32.432Z,12.93
2019-05-20T03:25:32.423Z,12.94
2019-05-20T03:26:32.411Z,12.93
2019-05-20T03:27:32.426Z,12.93
2019-05-20T03:28:32.399Z,12.93
2019-05-20T03:29:32.382Z,12.93
2019-05-20T03:30:32.381Z,12.90
2019-05-20T03:31:32.377Z,12.90
2019-05-20T03:32:32.365Z,12.87
2019-05-20T03:33:32.389Z,12.91
2019-05-20T03:34:47.951Z,12.93
2019-05-20T03:35:33.304Z,12.94
2019-05-20T03:36:32.302Z,12.97
2019-05-20T03:37:32.272Z,13.00
2019-05-20T03:38:32.298Z,13.01
2019-05-20T03:39:32.277Z,13.04
2019-05-20T03:40:32.307Z,13.09
2019-05-20T03:41:32.258Z,13.13
2019-05-20T03:42:32.217Z,13.18
2019-05-20T03:43:32.218Z,13.22
2019-05-20T03:44:32.264Z,13.27
2019-05-20T03:45:32.196Z,13.31
2019-05-20T03:46:32.205Z,13.37
2019-05-20T03:47:32.185Z,13.35
2019-05-20T03:48:32.204Z,13.37
2019-05-20T03:49:32.185Z,13.37
2019-05-20T03:50:32.187Z,13.31
2019-05-20T03:51:32.265Z,13.35
2019-05-20T03:52:32.113Z,13.39
2019-05-20T03:53:32.176Z,13.46
2019-05-20T03:54:32.134Z,13.52
2019-05-20T03:55:32.082Z,13.54
2019-05-20T03:56:32.084Z,13.56
2019-05-20T03:57:32.068Z,13.57
2019-05-20T03:58:32.173Z,13.59
2019-05-20T03:59:32.054Z,13.60
2019-05-20T04:00:32.052Z,13.60
2019-05-20T04:01:32.075Z,13.57
2019-05-20T04:02:32.002Z,13.59
2019-05-20T04:03:32.020Z,13.65
2019-05-20T04:04:32.037Z,13.68
2019-05-20T04:05:32.018Z,13.67
2019-05-20T04:06:31.997Z,13.57
2019-05-20T04:07:31.976Z,13.53
2019-05-20T04:08:31.987Z,13.49
2019-05-20T04:09:31.932Z,13.42
2019-05-20T04:10:31.919Z,13.46
2019-05-20T04:11:31.960Z,13.42
2019-05-20T04:12:31.911Z,13.46
2019-05-20T04:13:34.723Z,13.52
2019-05-20T04:14:31.896Z,13.57
2019-05-20T04:15:31.906Z,13.57
2019-05-20T04:16:31.895Z,13.50
2019-05-20T04:17:31.862Z,13.46
2019-05-20T04:18:31.841Z,13.46
2019-05-20T04:19:31.841Z,13.50
2019-05-20T04:20:31.828Z,13.54
2019-05-20T04:21:31.846Z,13.52
2019-05-20T04:22:31.799Z,13.49
2019-05-20T04:23:31.789Z,13.50
2019-05-20T04:24:31.787Z,13.49
2019-05-20T04:25:31.773Z,13.52
2019-05-20T04:26:31.766Z,13.53
2019-05-20T04:27:31.853Z,13.59
2019-05-20T04:28:31.775Z,13.67
2019-05-20T04:29:31.716Z,13.71
2019-05-20T04:30:31.705Z,13.75
2019-05-20T04:31:31.706Z,13.78
2019-05-20T04:32:31.715Z,13.79
2019-05-20T04:33:31.690Z,13.81
2019-05-20T04:34:31.684Z,13.85
2019-05-20T04:35:31.651Z,13.89
2019-05-20T04:36:31.735Z,13.87
2019-05-20T04:37:31.662Z,13.89
2019-05-20T04:38:31.737Z,13.83
2019-05-20T04:39:31.681Z,13.81
2019-05-20T04:40:31.641Z,13.83
2019-05-20T04:41:31.593Z,13.79
2019-05-20T04:42:31.596Z,13.83
2019-05-20T04:43:31.600Z,13.83
2019-05-20T04:44:31.573Z,13.81
2019-05-20T04:45:31.547Z,13.81
2019-05-20T04:46:31.561Z,13.79
2019-05-20T04:47:31.540Z,13.83
2019-05-20T04:48:31.542Z,13.85
2019-05-20T04:49:31.503Z,13.83
2019-05-20T04:50:31.511Z,13.89
2019-05-20T04:51:31.495Z,13.90
2019-05-20T04:52:31.468Z,13.93
2019-05-20T04:53:31.494Z,13.93
2019-05-20T04:54:31.465Z,13.93
2019-05-20T04:55:31.429Z,13.97
2019-05-20T04:56:31.458Z,13.95
2019-05-20T04:57:31.426Z,13.90
2019-05-20T04:58:31.427Z,13.87
2019-05-20T04:59:31.412Z,13.85
2019-05-20T05:00:31.390Z,13.83
2019-05-20T05:01:31.379Z,13.81
2019-05-20T05:02:31.367Z,13.78
2019-05-20T05:03:31.427Z,13.79
2019-05-20T05:04:31.396Z,13.83
2019-05-20T05:05:37.575Z,13.87
2019-05-20T05:06:32.329Z,13.89
2019-05-20T05:07:31.310Z,13.95
2019-05-20T05:08:31.298Z,14.00
2019-05-20T05:09:31.925Z,14.03
2019-05-20T05:10:31.291Z,14.07
2019-05-20T05:11:31.292Z,14.10
2019-05-20T05:12:31.344Z,13.93
2019-05-20T05:13:31.259Z,13.95
2019-05-20T05:14:31.237Z,14.00
2019-05-20T05:15:31.282Z,14.07
2019-05-20T05:16:31.234Z,14.10
2019-05-20T05:17:31.209Z,14.11
2019-05-20T05:18:31.283Z,14.15
2019-05-20T05:19:31.174Z,14.12
2019-05-20T05:20:31.215Z,14.00
2019-05-20T05:21:31.170Z,14.03
2019-05-20T05:22:31.150Z,14.10
2019-05-20T05:23:31.206Z,14.04
2019-05-20T05:24:31.134Z,14.00
2019-05-20T05:25:31.146Z,14.04
2019-05-20T05:26:31.113Z,14.08
2019-05-20T05:27:31.120Z,14.17
2019-05-20T05:28:31.082Z,14.28
2019-05-20T05:29:31.070Z,14.23
2019-05-20T05:30:31.092Z,14.05
2019-05-20T05:31:31.089Z,14.07
2019-05-20T05:32:31.045Z,14.15
2019-05-20T05:33:31.036Z,14.23
2019-05-20T05:34:31.010Z,14.20
2019-05-20T05:35:31.030Z,14.15
2019-05-20T05:36:31.021Z,14.17
2019-05-20T05:37:31.002Z,14.25
2019-05-20T05:38:31.000Z,14.33
2019-05-20T05:39:30.960Z,14.40
2019-05-20T05:40:30.951Z,14.47
2019-05-20T05:41:30.990Z,14.59
2019-05-20T05:42:30.936Z,14.68
2019-05-20T05:43:30.929Z,14.58
2019-05-20T05:44:30.928Z,14.53
2019-05-20T05:45:30.968Z,14.50
2019-05-20T05:46:30.924Z,14.55
2019-05-20T05:47:30.882Z,14.55
2019-05-20T05:48:30.879Z,14.50
2019-05-20T05:49:30.907Z,14.36
2019-05-20T05:50:30.841Z,14.35
2019-05-20T05:51:30.844Z,14.48
2019-05-20T05:52:30.861Z,14.41
2019-05-20T05:53:30.828Z,14.50
2019-05-20T05:54:30.806Z,14.50
2019-05-20T05:55:30.802Z,14.30
2019-05-20T05:56:30.782Z,14.33
2019-05-20T05:57:30.774Z,14.32
2019-05-20T05:58:30.805Z,14.33
2019-05-20T05:59:30.784Z,14.43
2019-05-20T06:00:30.870Z,14.30
2019-05-20T06:01:30.741Z,14.29
2019-05-20T06:02:30.721Z,14.33
2019-05-20T06:03:30.857Z,14.51
2019-05-20T06:04:30.699Z,14.70
2019-05-20T06:05:31.747Z,14.86
2019-05-20T06:06:30.749Z,14.82
2019-05-20T06:07:30.686Z,14.51
2019-05-20T06:08:30.690Z,14.43
2019-05-20T06:09:30.685Z,14.45
2019-05-20T06:10:30.646Z,14.58
2019-05-20T06:11:30.620Z,14.44
2019-05-20T06:12:30.727Z,14.53
2019-05-20T06:13:30.645Z,14.58
2019-05-20T06:14:30.593Z,14.53
2019-05-20T06:15:30.661Z,14.50
2019-05-20T06:16:36.474Z,14.44
2019-05-20T06:17:31.637Z,14.55
2019-05-20T06:18:30.643Z,14.81
2019-05-20T06:19:30.594Z,15.00
2019-05-20T06:20:30.533Z,15.18
2019-05-20T06:21:30.574Z,15.31
2019-05-20T06:22:30.514Z,15.42
2019-05-20T06:23:30.502Z,15.10
2019-05-20T06:24:30.519Z,14.92
2019-05-20T06:25:30.538Z,14.85
2019-05-20T06:26:30.489Z,14.99
2019-05-20T06:27:30.465Z,14.97
2019-05-20T06:28:30.441Z,15.09
2019-05-20T06:29:30.444Z,15.11
2019-05-20T06:30:30.491Z,14.88
2019-05-20T06:31:30.422Z,15.07
2019-05-20T06:32:30.435Z,15.15
2019-05-20T06:33:30.390Z,15.19
2019-05-20T06:34:30.392Z,15.25
2019-05-20T06:35:30.390Z,15.25
2019-05-20T06:36:30.373Z,15.07
2019-05-20T06:37:30.371Z,15.09
2019-05-20T06:38:30.349Z,15.07
2019-05-20T06:39:30.339Z,15.03
2019-05-20T06:40:30.312Z,14.86
2019-05-20T06:41:30.323Z,14.62
2019-05-20T06:42:30.337Z,14.43
2019-05-20T06:43:30.291Z,14.41
2019-05-20T06:44:30.292Z,14.45
2019-05-20T06:45:30.273Z,14.48
2019-05-20T06:46:30.280Z,14.59
2019-05-20T06:47:30.242Z,14.73
2019-05-20T06:48:30.239Z,14.99
2019-05-20T06:49:30.219Z,15.07
2019-05-20T06:50:30.257Z,14.86
2019-05-20T06:51:30.219Z,14.73
2019-05-20T06:52:35.855Z,14.72
2019-05-20T06:53:31.176Z,14.92
2019-05-20T06:54:30.181Z,15.06
2019-05-20T06:55:30.167Z,14.86
2019-05-20T06:56:30.160Z,14.66
2019-05-20T06:57:30.174Z,14.68
2019-05-20T06:58:30.141Z,14.85
2019-05-20T06:59:30.161Z,15.00
2019-05-20T07:00:30.145Z,15.02
2019-05-20T07:01:30.105Z,15.00
2019-05-20T07:02:30.109Z,14.88
2019-05-20T07:03:30.088Z,14.89
2019-05-20T07:04:30.070Z,14.99
2019-05-20T07:05:30.056Z,14.89
2019-05-20T07:06:44.908Z,14.86
2019-05-20T07:07:31.053Z,14.99
2019-05-20T07:08:30.072Z,15.04
2019-05-20T07:09:30.030Z,15.11
2019-05-20T07:10:29.995Z,15.17
2019-05-20T07:11:29.994Z,15.10
2019-05-20T07:12:40.611Z,15.33
2019-05-20T07:13:30.979Z,15.55
2019-05-20T07:14:29.971Z,15.67
2019-05-20T07:15:29.959Z,15.62
2019-05-20T07:16:29.930Z,15.58
2019-05-20T07:17:29.936Z,15.43
2019-05-20T07:18:29.960Z,15.49
2019-05-20T07:19:29.897Z,15.65
2019-05-20T07:20:29.899Z,15.57
2019-05-20T07:21:29.915Z,15.49
2019-05-20T07:22:29.864Z,15.54
2019-05-20T07:23:29.961Z,15.75
2019-05-20T07:24:29.868Z,15.95
2019-05-20T07:25:29.886Z,16.05
2019-05-20T07:26:29.954Z,16.20
2019-05-20T07:27:29.823Z,16.15
2019-05-20T07:28:29.807Z,16.15
2019-05-20T07:29:29.861Z,16.31
2019-05-20T07:30:29.771Z,16.47
2019-05-20T07:31:29.766Z,16.56
2019-05-20T07:32:29.814Z,16.56
2019-05-20T07:33:29.751Z,16.57
2019-05-20T07:34:29.723Z,16.57
2019-05-20T07:35:31.158Z,16.54
2019-05-20T07:36:29.737Z,16.56
2019-05-20T07:37:29.733Z,16.54
2019-05-20T07:38:29.787Z,16.49
2019-05-20T07:39:29.692Z,16.58
2019-05-20T07:40:29.697Z,16.66
2019-05-20T07:41:29.735Z,16.24
2019-05-20T07:42:29.661Z,16.23
2019-05-20T07:43:29.653Z,16.02
2019-05-20T07:44:29.675Z,15.97
2019-05-20T07:45:29.701Z,15.86
2019-05-20T07:46:29.641Z,15.62
2019-05-20T07:47:29.607Z,15.49
2019-05-20T07:48:29.705Z,15.62
2019-05-20T07:49:29.595Z,15.54
2019-05-20T07:50:29.579Z,15.42
2019-05-20T07:51:29.572Z,15.21
2019-05-20T07:52:29.596Z,15.22
2019-05-20T07:53:29.684Z,15.25
2019-05-20T07:54:29.548Z,15.33
2019-05-20T07:55:29.718Z,15.52
2019-05-20T07:56:29.587Z,15.68
2019-05-20T07:57:29.525Z,15.70
2019-05-20T07:58:32.968Z,15.62
2019-05-20T07:59:29.501Z,15.58
2019-05-20T08:00:29.584Z,15.65
2019-05-20T08:01:29.565Z,15.83
2019-05-20T08:02:29.477Z,15.92
2019-05-20T08:03:29.543Z,15.91
2019-05-20T08:04:29.955Z,15.72
2019-05-20T08:05:29.459Z,15.49
2019-05-20T08:06:29.578Z,15.49
2019-05-20T08:07:49.960Z,15.55
2019-05-20T08:08:30.394Z,15.67
2019-05-20T08:09:29.466Z,16.02
2019-05-20T08:10:29.402Z,16.12
2019-05-20T08:11:29.424Z,16.08
2019-05-20T08:12:29.393Z,15.91
2019-05-20T08:13:29.348Z,16.09
2019-05-20T08:14:29.361Z,16.33
2019-05-20T08:15:29.343Z,16.31
2019-05-20T08:16:29.351Z,16.17
2019-05-20T08:17:29.316Z,16.23
2019-05-20T08:18:29.323Z,16.24
2019-05-20T08:19:29.297Z,16.32
2019-05-20T08:20:29.260Z,16.09
2019-05-20T08:21:29.279Z,16.16
2019-05-20T08:22:29.253Z,16.35
2019-05-20T08:23:29.236Z,16.51
2019-05-20T08:24:29.222Z,16.43
2019-05-20T08:25:29.190Z,16.12
2019-05-20T08:26:29.202Z,16.15
2019-05-20T08:27:29.168Z,16.29
2019-05-20T08:28:29.154Z,16.39
2019-05-20T08:29:29.153Z,16.46
2019-05-20T08:30:29.129Z,16.35
2019-05-20T08:31:29.123Z,16.49
2019-05-20T08:32:29.183Z,16.54
2019-05-20T08:33:29.112Z,16.71
2019-05-20T08:34:29.132Z,16.58
2019-05-20T08:35:29.071Z,16.49
2019-05-20T08:36:29.115Z,16.50
2019-05-20T08:37:44.359Z,16.46
2019-05-20T08:38:30.052Z,16.53
2019-05-20T08:39:29.032Z,16.69
2019-05-20T08:40:29.087Z,16.78
2019-05-20T08:41:29.031Z,16.65
2019-05-20T08:42:29.027Z,16.60
2019-05-20T08:43:29.041Z,16.64
2019-05-20T08:44:29.106Z,16.64
2019-05-20T08:45:29.002Z,16.79
2019-05-20T08:46:28.989Z,16.84
2019-05-20T08:47:28.948Z,16.84
2019-05-20T08:48:29.158Z,16.75
2019-05-20T08:49:28.946Z,16.66
2019-05-20T08:50:28.925Z,16.97
2019-05-20T08:51:28.930Z,17.01
2019-05-20T08:52:28.911Z,17.27
2019-05-20T08:53:28.888Z,17.41
2019-05-20T08:54:28.874Z,17.48
2019-05-20T08:55:28.856Z,17.36
2019-05-20T08:56:28.895Z,17.20
2019-05-20T08:57:28.863Z,16.93
2019-05-20T08:58:28.845Z,16.81
2019-05-20T08:59:28.815Z,16.79
2019-05-20T09:00:28.829Z,17.08
2019-05-20T09:01:28.832Z,17.09
2019-05-20T09:02:28.805Z,17.22
2019-05-20T09:03:30.530Z,17.44
2019-05-20T09:04:28.775Z,17.71
2019-05-20T09:05:28.967Z,17.89
2019-05-20T09:06:28.780Z,18.05
2019-05-20T09:07:28.755Z,18.04
2019-05-20T09:08:28.714Z,17.85
2019-05-20T09:09:28.835Z,17.70
2019-05-20T09:10:28.710Z,17.89
2019-05-20T09:11:28.726Z,17.97
2019-05-20T09:12:28.700Z,17.82
2019-05-20T09:13:28.680Z,17.64
2019-05-20T09:14:28.684Z,17.36
2019-05-20T09:15:28.959Z,17.49
2019-05-20T09:16:28.658Z,17.74
2019-05-20T09:17:28.678Z,18.01
2019-05-20T09:18:28.616Z,17.87
2019-05-20T09:19:28.641Z,18.00
2019-05-20T09:20:28.624Z,17.85
2019-05-20T09:21:28.594Z,17.87
2019-05-20T09:22:28.585Z,17.94
2019-05-20T09:23:28.577Z,17.82
2019-05-20T09:24:28.557Z,17.74
2019-05-20T09:25:28.545Z,17.86
2019-05-20T09:26:28.537Z,18.03
2019-05-20T09:27:28.531Z,17.92
2019-05-20T09:28:28.771Z,17.83
2019-05-20T09:29:28.497Z,17.52
2019-05-20T09:30:28.485Z,17.60
2019-05-20T09:31:28.640Z,17.76
2019-05-20T09:32:28.484Z,17.87
2019-05-20T09:33:28.484Z,17.68
2019-05-20T09:34:28.472Z,17.64
2019-05-20T09:35:28.542Z,17.83
2019-05-20T09:36:28.425Z,17.97
2019-05-20T09:37:28.406Z,18.13
2019-05-20T09:38:28.392Z,18.28
2019-05-20T09:39:28.405Z,18.08
2019-05-20T09:40:28.383Z,17.94
2019-05-20T09:41:28.395Z,17.85
2019-05-20T09:42:28.376Z,18.05
2019-05-20T09:43:28.365Z,18.20
2019-05-20T09:44:28.393Z,18.20
2019-05-20T09:45:28.325Z,18.19
2019-05-20T09:46:28.313Z,18.19
2019-05-20T09:47:28.320Z,18.29
2019-05-20T09:48:28.300Z,18.05
2019-05-20T09:49:28.298Z,18.16
2019-05-20T09:50:28.287Z,18.13
2019-05-20T09:51:28.261Z,18.34
2019-05-20T09:52:28.265Z,18.52
2019-05-20T09:53:28.238Z,18.58
2019-05-20T09:54:28.236Z,18.56
2019-05-20T09:55:28.312Z,18.60
2019-05-20T09:56:28.214Z,18.63
2019-05-20T09:57:28.207Z,18.66
2019-05-20T09:58:28.198Z,18.63
2019-05-20T09:59:42.056Z,18.88
2019-05-20T10:00:29.250Z,18.99
2019-05-20T10:01:28.154Z,19.16
2019-05-20T10:02:36.202Z,19.07
2019-05-20T10:03:29.182Z,18.99
2019-05-20T10:04:28.120Z,18.81
2019-05-20T10:05:28.131Z,18.84
2019-05-20T10:06:28.135Z,18.99
2019-05-20T10:07:28.112Z,19.45
2019-05-20T10:08:37.986Z,19.73
2019-05-20T10:09:29.212Z,20.10
2019-05-20T10:10:28.084Z,20.65
2019-05-20T10:11:28.061Z,21.46
2019-05-20T10:12:44.594Z,21.37
2019-05-20T10:13:29.030Z,21.33
2019-05-20T10:14:28.074Z,21.67
2019-05-20T10:15:28.003Z,22.22
2019-05-20T10:16:28.030Z,22.48
2019-05-20T10:17:27.982Z,22.35
2019-05-20T10:18:37.092Z,22.44
2019-05-20T10:19:28.960Z,22.75
2019-05-20T10:20:27.998Z,21.99
2019-05-20T10:21:27.978Z,22.22
2019-05-20T10:22:27.926Z,22.45
2019-05-20T10:23:27.926Z,22.36
2019-05-20T10:24:27.894Z,22.28
2019-05-20T10:25:27.901Z,22.45
2019-05-20T10:26:27.884Z,22.36
2019-05-20T10:27:27.899Z,22.51
2019-05-20T10:28:27.868Z,21.88
2019-05-20T10:29:27.853Z,21.61
2019-05-20T10:30:27.851Z,21.95
2019-05-20T10:31:27.841Z,22.39
2019-05-20T10:32:27.848Z,22.93
2019-05-20T10:33:27.828Z,22.65
2019-05-20T10:34:27.828Z,22.69
2019-05-20T10:35:27.825Z,22.72
2019-05-20T10:36:27.779Z,22.80
2019-05-20T10:37:27.765Z,23.09
2019-05-20T10:38:27.770Z,23.02
2019-05-20T10:39:27.760Z,22.65
2019-05-20T10:40:27.786Z,22.76
2019-05-20T10:41:29.583Z,22.83
2019-05-20T10:42:27.783Z,22.75
2019-05-20T10:43:27.728Z,22.83
2019-05-20T10:44:27.830Z,22.93
2019-05-20T10:45:27.699Z,22.76
2019-05-20T10:46:27.686Z,22.81
2019-05-20T10:47:27.843Z,22.62
2019-05-20T10:48:27.703Z,22.60
2019-05-20T10:49:27.637Z,22.63
2019-05-20T10:50:27.761Z,22.93
2019-05-20T10:51:27.633Z,23.48
2019-05-20T10:52:27.598Z,24.20
2019-05-20T10:53:28.425Z,24.11
2019-05-20T10:54:27.620Z,24.01
2019-05-20T10:55:27.605Z,23.96
2019-05-20T10:56:27.650Z,23.40
2019-05-20T10:57:27.574Z,23.00
2019-05-20T10:58:27.553Z,22.85
2019-05-20T10:59:27.719Z,22.98
2019-05-20T11:00:27.534Z,23.27
2019-05-20T11:01:27.531Z,23.59
2019-05-20T11:02:31.117Z,23.84
2019-05-20T11:03:27.495Z,23.92
2019-05-20T11:04:27.510Z,23.61
2019-05-20T11:05:27.476Z,23.77
2019-05-20T11:06:27.470Z,24.10
2019-05-20T11:07:27.469Z,24.74
2019-05-20T11:08:27.430Z,25.11
2019-05-20T11:09:27.442Z,25.16
2019-05-20T11:10:27.527Z,24.21
2019-05-20T11:11:27.418Z,23.86
2019-05-20T11:12:27.424Z,24.63
2019-05-20T11:13:27.400Z,25.55
2019-05-20T11:14:27.394Z,25.96
2019-05-20T11:15:27.413Z,26.26
2019-05-20T11:16:27.376Z,25.87
2019-05-20T11:17:27.354Z,25.83
2019-05-20T11:18:27.330Z,25.80
2019-05-20T11:19:27.359Z,24.33
2019-05-20T11:20:27.362Z,23.93
2019-05-20T11:21:27.311Z,23.98
2019-05-20T11:22:27.306Z,23.71
2019-05-20T11:23:27.297Z,23.74
2019-05-20T11:24:27.264Z,24.26
2019-05-20T11:25:27.272Z,23.81
2019-05-20T11:26:27.278Z,24.57
2019-05-20T11:27:27.262Z,24.06
2019-05-20T11:28:27.234Z,24.33
2019-05-20T11:29:27.227Z,24.30
2019-05-20T11:30:27.228Z,24.32
2019-05-20T11:31:27.242Z,23.84
2019-05-20T11:32:27.207Z,23.56
2019-05-20T11:33:27.192Z,23.58
2019-05-20T11:34:27.193Z,23.09
2019-05-20T11:35:27.159Z,23.02
2019-05-20T11:36:27.173Z,22.99
2019-05-20T11:37:27.181Z,23.66
2019-05-20T11:38:27.130Z,23.95
2019-05-20T11:39:33.459Z,24.63
2019-05-20T11:40:28.120Z,24.93
2019-05-20T11:41:52.309Z,24.65
2019-05-20T11:42:28.115Z,24.30
2019-05-20T11:43:27.083Z,23.98
2019-05-20T11:44:27.072Z,24.39
2019-05-20T11:45:27.073Z,24.03
2019-05-20T11:46:27.065Z,23.55
2019-05-20T11:47:27.051Z,23.81
2019-05-20T11:48:27.085Z,24.77
2019-05-20T11:49:29.247Z,25.54
2019-05-20T11:50:27.014Z,25.29
2019-05-20T11:51:26.995Z,24.91
2019-05-20T11:52:27.007Z,24.88
2019-05-20T11:53:27.023Z,25.31
2019-05-20T11:54:27.065Z,26.02
2019-05-20T11:55:26.979Z,25.87
2019-05-20T11:56:27.029Z,25.17
2019-05-20T11:57:27.040Z,24.39
2019-05-20T11:58:26.960Z,24.26
2019-05-20T11:59:26.910Z,24.18
2019-05-20T12:00:26.998Z,24.38
2019-05-20T12:01:26.880Z,24.35
2019-05-20T12:02:26.882Z,24.70
2019-05-20T12:03:26.997Z,24.80
2019-05-20T12:04:26.913Z,24.70
2019-05-20T12:05:26.853Z,24.86
2019-05-20T12:06:26.988Z,25.28
2019-05-20T12:07:26.834Z,25.11
2019-05-20T12:08:26.817Z,25.10
2019-05-20T12:09:26.859Z,25.13
2019-05-20T12:10:27.056Z,25.25
2019-05-20T12:11:26.795Z,24.86
2019-05-20T12:12:26.781Z,25.06
2019-05-20T12:13:26.785Z,25.54
2019-05-20T12:14:26.767Z,26.23
2019-05-20T12:15:26.774Z,26.33
2019-05-20T12:16:26.828Z,26.21
2019-05-20T12:17:26.749Z,26.16
2019-05-20T12:18:26.766Z,25.99
2019-05-20T12:19:26.717Z,26.15
2019-05-20T12:20:26.770Z,25.99
2019-05-20T12:21:26.725Z,26.19
2019-05-20T12:22:26.722Z,26.65
2019-05-20T12:23:26.672Z,26.29
2019-05-20T12:24:26.652Z,25.17
2019-05-20T12:25:26.772Z,25.53
2019-05-20T12:26:26.636Z,25.25
2019-05-20T12:27:26.627Z,25.32
2019-05-20T12:28:26.614Z,25.70
2019-05-20T12:29:26.621Z,25.72
2019-05-20T12:30:26.600Z,26.52
2019-05-20T12:31:26.626Z,26.99
2019-05-20T12:32:26.587Z,27.15
2019-05-20T12:33:26.582Z,27.27
2019-05-20T12:34:26.569Z,27.59
2019-05-20T12:35:26.568Z,27.08
2019-05-20T12:36:26.622Z,27.25
2019-05-20T12:37:26.515Z,27.44
2019-05-20T12:38:26.568Z,27.20
2019-05-20T12:39:26.762Z,26.40
2019-05-20T12:40:26.508Z,25.85
2019-05-20T12:41:26.493Z,25.46
2019-05-20T12:42:26.487Z,25.62
2019-05-20T12:43:26.713Z,25.84
2019-05-20T12:44:26.486Z,26.70
2019-05-20T12:45:26.455Z,27.26
2019-05-20T12:46:26.516Z,27.93
2019-05-20T12:47:26.475Z,28.10
2019-05-20T12:48:26.409Z,28.29
2019-05-20T12:49:26.564Z,28.51
2019-05-20T12:50:26.403Z,28.81
2019-05-20T12:51:26.383Z,28.89
2019-05-20T12:52:26.442Z,28.54